LOT7JF EPWA-EYVI
Flight info
| Callsign | LOT7JF |
|---|---|
| Flight time | 0h 46m |
| Altitude | 33000 |
| Route | BAMSO Z182 ASLUX Z460 XESNA M857 BULEP DCT OFEDE DCT LIZUP DCT DIMTA |
| Aircraft | B738/M-SDE2E3FGHIRWXY/LB1 |
Departure
| Time | 2026-04-30 21:03 |
|---|---|
| Airport | Warsaw Chopin Airport (EPWA) |
Arrival
| Time | 2026-04-30 21:50 |
|---|---|
| Airport | Vilnius International Airport (EYVI) |
| Time | Latitude | Longitude | Altitude | Speed | Heading |
|---|---|---|---|---|---|
| 2026-04-30 20:38 | 52.17094 | 20.97061 | 338 ft | 0 kts | 75° |
| 2026-04-30 20:51 | 52.17091 | 20.97042 | 333 ft | 4 kts | 75° |
| 2026-04-30 20:51 | 52.17084 | 20.97000 | 332 ft | 4 kts | 74° |
| 2026-04-30 20:52 | 52.17074 | 20.96967 | 332 ft | 2 kts | 62° |
| 2026-04-30 20:52 | 52.17068 | 20.96933 | 333 ft | 4 kts | 113° |
| 2026-04-30 20:52 | 52.17103 | 20.96888 | 334 ft | 4 kts | 152° |
| 2026-04-30 20:53 | 52.17115 | 20.96878 | 332 ft | 0 kts | 152° |
| 2026-04-30 20:56 | 52.17108 | 20.96883 | 338 ft | 3 kts | 152° |
| 2026-04-30 20:56 | 52.17019 | 20.96961 | 334 ft | 8 kts | 152° |
| 2026-04-30 20:57 | 52.16969 | 20.97005 | 336 ft | 8 kts | 152° |
| 2026-04-30 20:57 | 52.16920 | 20.97047 | 337 ft | 8 kts | 152° |
| 2026-04-30 20:57 | 52.16873 | 20.97087 | 336 ft | 8 kts | 152° |
| 2026-04-30 20:58 | 52.16763 | 20.97182 | 336 ft | 10 kts | 160° |
| 2026-04-30 20:58 | 52.16711 | 20.97132 | 337 ft | 10 kts | 242° |
| 2026-04-30 20:58 | 52.16671 | 20.97048 | 336 ft | 10 kts | 198° |
| 2026-04-30 20:58 | 52.16621 | 20.97069 | 337 ft | 7 kts | 153° |
| 2026-04-30 20:59 | 52.16585 | 20.97099 | 337 ft | 0 kts | 152° |
| 2026-04-30 20:59 | 52.16579 | 20.97104 | 337 ft | 4 kts | 152° |
| 2026-04-30 21:00 | 52.16536 | 20.97141 | 337 ft | 6 kts | 152° |
| 2026-04-30 21:00 | 52.16453 | 20.97175 | 335 ft | 6 kts | 241° |
| 2026-04-30 21:01 | 52.16456 | 20.97140 | 334 ft | 0 kts | 294° |
| 2026-04-30 21:03 | 52.16523 | 20.96898 | 335 ft | 65 kts | 295° |
| 2026-04-30 21:03 | 52.16838 | 20.95775 | 337 ft | 149 kts | 296° |
| 2026-04-30 21:03 | 52.17321 | 20.94115 | 1024 ft | 167 kts | 294° |
| 2026-04-30 21:04 | 52.17773 | 20.92467 | 2275 ft | 159 kts | 296° |
| 2026-04-30 21:04 | 52.18302 | 20.90779 | 2942 ft | 180 kts | 311° |
| 2026-04-30 21:04 | 52.20823 | 20.88654 | 3719 ft | 224 kts | 341° |
| 2026-04-30 21:05 | 52.22425 | 20.88545 | 4137 ft | 243 kts | 19° |
| 2026-04-30 21:05 | 52.23759 | 20.90243 | 5116 ft | 250 kts | 52° |
| 2026-04-30 21:05 | 52.24487 | 20.92829 | 6193 ft | 256 kts | 70° |
| 2026-04-30 21:05 | 52.24851 | 20.95712 | 7163 ft | 262 kts | 76° |
| 2026-04-30 21:06 | 52.25117 | 20.98676 | 8132 ft | 264 kts | 77° |
| 2026-04-30 21:06 | 52.25368 | 21.01660 | 9111 ft | 267 kts | 77° |
| 2026-04-30 21:06 | 52.25623 | 21.04641 | 10069 ft | 269 kts | 77° |
| 2026-04-30 21:06 | 52.25892 | 21.07688 | 10855 ft | 277 kts | 77° |
| 2026-04-30 21:07 | 52.26194 | 21.10954 | 11121 ft | 304 kts | 77° |
| 2026-04-30 21:07 | 52.26527 | 21.14500 | 11327 ft | 329 kts | 77° |
| 2026-04-30 21:07 | 52.26889 | 21.18321 | 11512 ft | 353 kts | 77° |
| 2026-04-30 21:07 | 52.27273 | 21.22391 | 11924 ft | 367 kts | 77° |
| 2026-04-30 21:08 | 52.27661 | 21.26542 | 12637 ft | 372 kts | 77° |
| 2026-04-30 21:08 | 52.28051 | 21.30720 | 13480 ft | 373 kts | 77° |
| 2026-04-30 21:08 | 52.28444 | 21.34918 | 14253 ft | 376 kts | 77° |
| 2026-04-30 21:08 | 52.28840 | 21.39145 | 14922 ft | 378 kts | 76° |
| 2026-04-30 21:09 | 52.29237 | 21.43385 | 15690 ft | 378 kts | 76° |
| 2026-04-30 21:09 | 52.29632 | 21.47621 | 16398 ft | 380 kts | 76° |
| 2026-04-30 21:09 | 52.30031 | 21.51900 | 17053 ft | 383 kts | 76° |
| 2026-04-30 21:09 | 52.30432 | 21.56215 | 17708 ft | 386 kts | 76° |
| 2026-04-30 21:10 | 52.30827 | 21.60482 | 18355 ft | 388 kts | 76° |
| 2026-04-30 21:10 | 52.31229 | 21.64853 | 18949 ft | 390 kts | 76° |
| 2026-04-30 21:10 | 52.31630 | 21.69186 | 19500 ft | 391 kts | 75° |
| 2026-04-30 21:10 | 52.32479 | 21.73354 | 20022 ft | 384 kts | 56° |
| 2026-04-30 21:11 | 52.34161 | 21.76691 | 20629 ft | 379 kts | 43° |
| 2026-04-30 21:11 | 52.36195 | 21.79435 | 21208 ft | 380 kts | 33° |
| 2026-04-30 21:11 | 52.38495 | 21.81590 | 21730 ft | 381 kts | 29° |
| 2026-04-30 21:11 | 52.40847 | 21.83630 | 22259 ft | 383 kts | 28° |
| 2026-04-30 21:12 | 52.43204 | 21.85637 | 22772 ft | 384 kts | 28° |
| 2026-04-30 21:12 | 52.45586 | 21.87669 | 23280 ft | 386 kts | 28° |
| 2026-04-30 21:12 | 52.47973 | 21.89721 | 23775 ft | 387 kts | 28° |
| 2026-04-30 21:12 | 52.50357 | 21.91791 | 24195 ft | 388 kts | 28° |
| 2026-04-30 21:13 | 52.52745 | 21.93878 | 24578 ft | 390 kts | 29° |
| 2026-04-30 21:13 | 52.55141 | 21.95983 | 24964 ft | 391 kts | 29° |
| 2026-04-30 21:13 | 52.56733 | 21.97387 | 25211 ft | 391 kts | 29° |
| 2026-04-30 21:13 | 52.59125 | 21.99500 | 25575 ft | 392 kts | 29° |
| 2026-04-30 21:14 | 52.61537 | 22.01636 | 25917 ft | 394 kts | 29° |
| 2026-04-30 21:14 | 52.63955 | 22.03779 | 26266 ft | 395 kts | 29° |
| 2026-04-30 21:14 | 52.66374 | 22.05928 | 26598 ft | 396 kts | 30° |
| 2026-04-30 21:14 | 52.68803 | 22.08087 | 26935 ft | 396 kts | 29° |
| 2026-04-30 21:15 | 52.71217 | 22.10236 | 27339 ft | 394 kts | 30° |
| 2026-04-30 21:15 | 52.73618 | 22.12376 | 27830 ft | 390 kts | 30° |
| 2026-04-30 21:15 | 52.76003 | 22.14504 | 28318 ft | 387 kts | 30° |
| 2026-04-30 21:15 | 52.78365 | 22.16615 | 28768 ft | 385 kts | 30° |
| 2026-04-30 21:16 | 52.80719 | 22.18720 | 29203 ft | 384 kts | 30° |
| 2026-04-30 21:16 | 52.83065 | 22.20822 | 29644 ft | 382 kts | 30° |
| 2026-04-30 21:16 | 52.85395 | 22.22911 | 30126 ft | 379 kts | 30° |
| 2026-04-30 21:16 | 52.87706 | 22.24986 | 30568 ft | 377 kts | 30° |
| 2026-04-30 21:17 | 52.89982 | 22.27033 | 30909 ft | 376 kts | 30° |
| 2026-04-30 21:17 | 52.92312 | 22.29130 | 31230 ft | 376 kts | 30° |
| 2026-04-30 21:17 | 52.94573 | 22.31168 | 31546 ft | 375 kts | 30° |
| 2026-04-30 21:17 | 52.96888 | 22.33257 | 31885 ft | 374 kts | 30° |
| 2026-04-30 21:18 | 52.99153 | 22.35305 | 32395 ft | 368 kts | 30° |
| 2026-04-30 21:18 | 53.01393 | 22.37331 | 32428 ft | 373 kts | 30° |
| 2026-04-30 21:18 | 53.03664 | 22.39388 | 32789 ft | 370 kts | 30° |
| 2026-04-30 21:18 | 53.05916 | 22.41429 | 33243 ft | 366 kts | 30° |
| 2026-04-30 21:19 | 53.10407 | 22.45508 | 33358 ft | 368 kts | 30° |
| 2026-04-30 21:19 | 53.14872 | 22.49573 | 33355 ft | 363 kts | 30° |
| 2026-04-30 21:20 | 53.19244 | 22.53563 | 33363 ft | 361 kts | 30° |
| 2026-04-30 21:20 | 53.23652 | 22.57596 | 33356 ft | 361 kts | 30° |
| 2026-04-30 21:21 | 53.28055 | 22.61634 | 33356 ft | 360 kts | 30° |
| 2026-04-30 21:22 | 53.34628 | 22.67680 | 33363 ft | 361 kts | 30° |
| 2026-04-30 21:23 | 53.43439 | 22.75816 | 33354 ft | 362 kts | 30° |
| 2026-04-30 21:23 | 53.50064 | 22.81961 | 33351 ft | 363 kts | 30° |
| 2026-04-30 21:24 | 53.54494 | 22.86082 | 33350 ft | 363 kts | 30° |
| 2026-04-30 21:24 | 53.58893 | 22.90184 | 33344 ft | 364 kts | 29° |
| 2026-04-30 21:25 | 53.65531 | 22.96392 | 33350 ft | 364 kts | 29° |
| 2026-04-30 21:26 | 53.72177 | 23.02631 | 33344 ft | 364 kts | 30° |
| 2026-04-30 21:27 | 53.78799 | 23.08870 | 33013 ft | 367 kts | 30° |
| 2026-04-30 21:27 | 53.81031 | 23.10978 | 32399 ft | 365 kts | 30° |
| 2026-04-30 21:27 | 53.83240 | 23.13066 | 31700 ft | 363 kts | 30° |
| 2026-04-30 21:28 | 53.87631 | 23.17226 | 30359 ft | 357 kts | 30° |
| 2026-04-30 21:28 | 53.89782 | 23.19268 | 29715 ft | 351 kts | 30° |
| 2026-04-30 21:28 | 53.93968 | 23.23248 | 28608 ft | 339 kts | 30° |
| 2026-04-30 21:29 | 53.96013 | 23.25195 | 28073 ft | 334 kts | 30° |
| 2026-04-30 21:29 | 54.01912 | 23.30980 | 26518 ft | 324 kts | 37° |
| 2026-04-30 21:30 | 54.04770 | 23.36962 | 25399 ft | 329 kts | 54° |
| 2026-04-30 21:31 | 54.06763 | 23.48408 | 23791 ft | 338 kts | 68° |
| 2026-04-30 21:31 | 54.08167 | 23.55899 | 22617 ft | 326 kts | 59° |
| 2026-04-30 21:32 | 54.10027 | 23.62915 | 21498 ft | 324 kts | 59° |
| 2026-04-30 21:32 | 54.10955 | 23.66411 | 20955 ft | 323 kts | 59° |
| 2026-04-30 21:32 | 54.11873 | 23.69889 | 20427 ft | 322 kts | 60° |
| 2026-04-30 21:32 | 54.12789 | 23.73371 | 19898 ft | 321 kts | 60° |
| 2026-04-30 21:33 | 54.13699 | 23.76850 | 19394 ft | 320 kts | 60° |
| 2026-04-30 21:33 | 54.15492 | 23.83732 | 18370 ft | 319 kts | 60° |
| 2026-04-30 21:33 | 54.16390 | 23.87189 | 17840 ft | 318 kts | 61° |
| 2026-04-30 21:34 | 54.17283 | 23.90637 | 17325 ft | 316 kts | 61° |
| 2026-04-30 21:34 | 54.19055 | 23.97493 | 16333 ft | 313 kts | 61° |
| 2026-04-30 21:34 | 54.19931 | 24.00891 | 15942 ft | 311 kts | 60° |
| 2026-04-30 21:35 | 54.20795 | 24.04247 | 15496 ft | 308 kts | 61° |
| 2026-04-30 21:35 | 54.21660 | 24.07609 | 14776 ft | 315 kts | 61° |
| 2026-04-30 21:35 | 54.22547 | 24.11052 | 14218 ft | 317 kts | 61° |
| 2026-04-30 21:35 | 54.23430 | 24.14496 | 13635 ft | 316 kts | 61° |
| 2026-04-30 21:36 | 54.24303 | 24.17913 | 13038 ft | 310 kts | 61° |
| 2026-04-30 21:36 | 54.25153 | 24.21248 | 12499 ft | 301 kts | 61° |
| 2026-04-30 21:37 | 54.27571 | 24.30742 | 10947 ft | 281 kts | 61° |
| 2026-04-30 21:37 | 54.28324 | 24.33792 | 10484 ft | 277 kts | 65° |
| 2026-04-30 21:37 | 54.28794 | 24.36933 | 10100 ft | 274 kts | 73° |
| 2026-04-30 21:37 | 54.29125 | 24.40112 | 9685 ft | 270 kts | 75° |
| 2026-04-30 21:38 | 54.29435 | 24.43290 | 9284 ft | 270 kts | 75° |
| 2026-04-30 21:38 | 54.29717 | 24.46170 | 8927 ft | 270 kts | 75° |
| 2026-04-30 21:38 | 54.29958 | 24.48584 | 8631 ft | 270 kts | 75° |
| 2026-04-30 21:39 | 54.30281 | 24.51759 | 8248 ft | 270 kts | 76° |
| 2026-04-30 21:39 | 54.30606 | 24.54919 | 7861 ft | 269 kts | 76° |
| 2026-04-30 21:39 | 54.30934 | 24.58071 | 7483 ft | 269 kts | 76° |
| 2026-04-30 21:39 | 54.31264 | 24.61236 | 7112 ft | 269 kts | 76° |
| 2026-04-30 21:40 | 54.31595 | 24.64394 | 6739 ft | 269 kts | 76° |
| 2026-04-30 21:40 | 54.31926 | 24.67553 | 6336 ft | 269 kts | 77° |
| 2026-04-30 21:40 | 54.32257 | 24.70713 | 5965 ft | 269 kts | 76° |
| 2026-04-30 21:40 | 54.32586 | 24.73864 | 5575 ft | 268 kts | 76° |
| 2026-04-30 21:41 | 54.32913 | 24.77001 | 5186 ft | 266 kts | 76° |
| 2026-04-30 21:41 | 54.33237 | 24.80118 | 4808 ft | 264 kts | 76° |
| 2026-04-30 21:41 | 54.33554 | 24.83168 | 4476 ft | 261 kts | 76° |
| 2026-04-30 21:41 | 54.33869 | 24.86205 | 4156 ft | 257 kts | 77° |
| 2026-04-30 21:42 | 54.34175 | 24.89170 | 4020 ft | 249 kts | 77° |
| 2026-04-30 21:42 | 54.34474 | 24.92069 | 3996 ft | 245 kts | 77° |
| 2026-04-30 21:42 | 54.34767 | 24.94907 | 3994 ft | 244 kts | 76° |
| 2026-04-30 21:42 | 54.35065 | 24.97787 | 4000 ft | 246 kts | 77° |
| 2026-04-30 21:43 | 54.35363 | 25.00691 | 4008 ft | 250 kts | 77° |
| 2026-04-30 21:43 | 54.35661 | 25.03615 | 3982 ft | 245 kts | 77° |
| 2026-04-30 21:43 | 54.35946 | 25.06430 | 3980 ft | 235 kts | 77° |
| 2026-04-30 21:43 | 54.36441 | 25.08991 | 3976 ft | 222 kts | 49° |
| 2026-04-30 21:44 | 54.37636 | 25.10454 | 4015 ft | 215 kts | 21° |
| 2026-04-30 21:44 | 54.39029 | 25.11536 | 3997 ft | 218 kts | 23° |
| 2026-04-30 21:44 | 54.40383 | 25.12592 | 3998 ft | 219 kts | 22° |
| 2026-04-30 21:44 | 54.41805 | 25.13609 | 3993 ft | 219 kts | 20° |
| 2026-04-30 21:45 | 54.43204 | 25.14548 | 3989 ft | 210 kts | 20° |
| 2026-04-30 21:45 | 54.44520 | 25.15448 | 3983 ft | 198 kts | 20° |
| 2026-04-30 21:45 | 54.45776 | 25.16318 | 3989 ft | 192 kts | 20° |
| 2026-04-30 21:45 | 54.47017 | 25.17180 | 3922 ft | 194 kts | 20° |
| 2026-04-30 21:46 | 54.48293 | 25.18067 | 3678 ft | 199 kts | 20° |
| 2026-04-30 21:46 | 54.49565 | 25.18952 | 3408 ft | 195 kts | 20° |
| 2026-04-30 21:46 | 54.50805 | 25.19815 | 3153 ft | 190 kts | 20° |
| 2026-04-30 21:46 | 54.52013 | 25.20655 | 2896 ft | 185 kts | 20° |
| 2026-04-30 21:47 | 54.53181 | 25.21468 | 2644 ft | 176 kts | 19° |
| 2026-04-30 21:47 | 54.54278 | 25.22231 | 2385 ft | 164 kts | 19° |
| 2026-04-30 21:47 | 54.55297 | 25.22940 | 2163 ft | 155 kts | 19° |
| 2026-04-30 21:47 | 54.56287 | 25.23627 | 1952 ft | 153 kts | 18° |
| 2026-04-30 21:48 | 54.57284 | 25.24319 | 1755 ft | 152 kts | 19° |
| 2026-04-30 21:48 | 54.58214 | 25.24966 | 1518 ft | 139 kts | 19° |
| 2026-04-30 21:48 | 54.59089 | 25.25573 | 1346 ft | 139 kts | 20° |
| 2026-04-30 21:48 | 54.60003 | 25.26208 | 1154 ft | 144 kts | 21° |
| 2026-04-30 21:49 | 54.60937 | 25.26858 | 949 ft | 145 kts | 21° |
| 2026-04-30 21:49 | 54.61872 | 25.27515 | 745 ft | 145 kts | 22° |
| 2026-04-30 21:49 | 54.62803 | 25.28155 | 601 ft | 139 kts | 22° |
| 2026-04-30 21:49 | 54.63479 | 25.28624 | 613 ft | 50 kts | 21° |
| 2026-04-30 21:50 | 54.63691 | 25.28768 | 626 ft | 9 kts | 14° |
| 2026-04-30 21:50 | 54.63763 | 25.28759 | 635 ft | 12 kts | 354° |
| 2026-04-30 21:50 | 54.63848 | 25.28744 | 636 ft | 12 kts | 354° |
| 2026-04-30 21:50 | 54.63932 | 25.28728 | 640 ft | 12 kts | 354° |
| 2026-04-30 21:51 | 54.64012 | 25.28716 | 641 ft | 12 kts | 355° |
| 2026-04-30 21:51 | 54.64091 | 25.28704 | 644 ft | 11 kts | 354° |
| 2026-04-30 21:51 | 54.64168 | 25.28691 | 649 ft | 11 kts | 354° |
| 2026-04-30 21:51 | 54.64234 | 25.28679 | 648 ft | 9 kts | 354° |
| 2026-04-30 21:52 | 54.64295 | 25.28668 | 649 ft | 9 kts | 354° |
| 2026-04-30 21:52 | 54.64305 | 25.28666 | 649 ft | 0 kts | 355° |
| 2026-04-30 21:54 | 54.64306 | 25.28666 | 649 ft | 1 kts | 355° |
| 2026-04-30 21:54 | 54.64332 | 25.28662 | 649 ft | 6 kts | 355° |
| 2026-04-30 21:54 | 54.64373 | 25.28654 | 649 ft | 6 kts | 352° |
| 2026-04-30 21:55 | 54.64409 | 25.28626 | 649 ft | 6 kts | 299° |
| 2026-04-30 21:55 | 54.64408 | 25.28525 | 644 ft | 11 kts | 267° |
| 2026-04-30 21:55 | 54.64406 | 25.28454 | 642 ft | 8 kts | 267° |
| 2026-04-30 21:55 | 54.64407 | 25.28353 | 638 ft | 8 kts | 289° |
| 2026-04-30 21:56 | 54.64434 | 25.28281 | 643 ft | 7 kts | 326° |
| 2026-04-30 21:56 | 54.64451 | 25.28230 | 637 ft | 4 kts | 270° |
| 2026-04-30 21:56 | 54.64451 | 25.28212 | 636 ft | 1 kts | 271° |
| 2026-04-30 21:56 | 54.64451 | 25.28198 | 636 ft | 1 kts | 270° |
| 2026-04-30 21:57 | 54.64451 | 25.28186 | 636 ft | 0 kts | 270° |